• Join FlightAware (Why Join?)
  • Login
  • US Flag 
01:53PM EDT


 

Airport Tracker/Info


-or-


 

Live Flight TrackerFlight Track Log ✈ N741FX ✈ 09-May-2013 ✈ KMEM - KABI

Flight Track Log - Related Links

Times and Time Zones

All times are in EDT time to prevent confusion due to time zone crossing. See the N741FX flight status page for this flight to view local times or setup timezone preferences in your user account.

Time Position Orientation Groundspeed Altitude Reporting Facility
EDT Latitude Longitude Course Direction KTS MPH feet Rate Location/Type
11:00AM 35.0333 -89.9667 219° Southwest 112 129 800  Level KMEM
11:01AM 35.0000 -90.0000 219° Southwest 93 107 1,900 780 Climbing KMEM
11:02AM 34.9833 -90.0167 219° Southwest 96 110 2,700 720 Climbing KMEM
11:03AM 34.9667 -90.0333 219° Southwest 96 110 3,300 780 Climbing KMEM
11:04AM 34.9333 -90.0667 219° Southwest 104 120 4,300 720 Climbing KMEM
11:05AM 34.9333 -90.1000 270° West 113 130 5,000 660 Climbing KMEM
11:06AM 34.9333 -90.1333 270° West 109 125 5,700 540 Climbing KMEM
11:07AM 34.9167 -90.1833 248° West 116 133 6,200 540 Climbing KMEM
11:08AM 34.9167 -90.2167 270° West 117 135 6,800 540 Climbing KMEM
11:09AM 34.9000 -90.2500 239° Southwest 117 135 7,300 540 Climbing KMEM
11:10AM 34.9000 -90.2833 270° West 116 133 7,900 300 Climbing KMEM
11:11AM 34.8833 -90.3333 248° West 121 139 8,000  Climbing KMEM
11:12AM 34.8833 -90.3833 270° West 141 162 7,900  Descending KMEM
11:13AM 34.8656 -90.4306 245° Southwest 157 181 8,000  Climbing Memphis Center
11:14AM 34.8550 -90.4736 253° West 146 168 8,000  Level Memphis Center
11:15AM 34.8467 -90.5164 257° West 137 158 8,000  Level Memphis Center
11:16AM 34.8361 -90.5619 254° West 137 158 8,000  Level Memphis Center
11:17AM 34.8256 -90.6100 255° West 142 163 8,000  Level Memphis Center
11:18AM 34.8172 -90.6506 256° West 147 169 8,000  Level Memphis Center
11:19AM 34.8067 -90.6986 255° West 147 169 8,000  Level Memphis Center
11:20AM 34.7939 -90.7442 251° West 147 169 8,000  Level Memphis Center
11:21AM 34.7833 -90.7919 255° West 147 169 8,000  Level Memphis Center
11:22AM 34.7728 -90.8400 255° West 147 169 8,000  Level Memphis Center
11:23AM 34.7622 -90.8906 256° West 147 169 8,000  Level Memphis Center
11:24AM 34.7494 -90.9408 253° West 152 175 8,000  Level Memphis Center
11:25AM 34.7386 -90.9939 256° West 152 175 8,000  Level Memphis Center
11:26AM 34.7281 -91.0419 255° West 147 169 8,000  Level Memphis Center
11:27AM 34.7172 -91.0925 255° West 147 169 8,000  Level Memphis Center
11:28AM 34.7044 -91.1428 253° West 147 169 8,000  Level Memphis Center
11:29AM 34.6936 -91.1906 255° West 152 175 8,000  Level Memphis Center
11:30AM 34.6831 -91.2361 254° West 154 177 8,000  Level Memphis Center
11:31AM 34.6722 -91.2764 252° West 154 177 8,000  Level Memphis Center
11:31AM 34.6722 -91.2939 270° West 152 175 8,000  Level Memphis Center
11:32AM 34.6614 -91.3217 245° Southwest 153 176 8,000  Level Memphis Center
11:32AM 34.6572 -91.3419 256° West 152 175 8,000  Level Memphis Center
11:33AM 34.6486 -91.3794 254° West 153 176 8,000  Level Memphis Center
11:33AM 34.6464 -91.3897 255° West 152 175 8,000  Level Memphis Center
11:34AM 34.6356 -91.4325 253° West 149 171 8,000  Level Memphis Center
11:35AM 34.6225 -91.4853 253° West 146 168 8,000  Level Memphis Center
11:36AM 34.6139 -91.5331 258° West 148 170 8,000  Level Memphis Center
11:37AM 34.6050 -91.5708 254° West 147 169 8,000  Level Memphis Center
11:38AM 34.5919 -91.6236 253° West 149 171 8,000  Level Memphis Center
11:39AM 34.5833 -91.6714 258° West 150 173 8,000  Level Memphis Center
11:40AM 34.5703 -91.7192 252° West 149 171 8,000  Level Memphis Center
11:41AM 34.5592 -91.7669 254° West 143 165 8,000  Level Memphis Center
11:42AM 34.5503 -91.8122 257° West 140 161 8,000  Level Memphis Center
11:43AM 34.5372 -91.8597 252° West 140 161 8,000  Level Memphis Center
11:45AM 34.5175 -91.9478 255° West 141 162 8,000  Level Memphis Center
11:46AM 34.5086 -91.9903 256° West 142 163 8,000  Level Memphis Center
11:47AM 34.4953 -92.0406 252° West 142 163 8,000  Level Memphis Center
11:48AM 34.4864 -92.0908 258° West 139 160 8,000  Level Memphis Center
11:49AM 34.4753 -92.1358 253° West 140 161 8,000  Level Memphis Center
11:50AM 34.4619 -92.1833 251° West 142 163 8,000  Level Memphis Center
11:51AM 34.4531 -92.2261 256° West 143 165 8,000  Level Memphis Center
11:52AM 34.4419 -92.2736 254° West 138 159 8,000  Level Memphis Center
11:53AM 34.4286 -92.3161 249° West 137 158 8,000  Level Memphis Center
11:54AM 34.4217 -92.3564 258° West 137 158 8,000  Level Memphis Center
11:55AM 34.4106 -92.4014 253° West 137 158 8,000  Level Memphis Center
11:56AM 34.3994 -92.4414 251° West 142 163 8,000  Level Memphis Center
11:57AM 34.3906 -92.4864 257° West 142 163 8,000  Level Memphis Center
11:58AM 34.3792 -92.5314 253° West 142 163 8,000  Level Memphis Center
11:59AM 34.3700 -92.5767 256° West 142 163 8,000  Level Memphis Center
12:00PM 34.3589 -92.6189 252° West 142 163 8,000  Level Memphis Center
12:01PM 34.3497 -92.6614 255° West 142 163 8,000  Level Memphis Center
12:02PM 34.3386 -92.7064 253° West 142 163 8,000  Level Memphis Center
12:03PM 34.3269 -92.7589 255° West 147 169 8,000  Level Memphis Center
12:04PM 34.3136 -92.8014 249° West 147 169 8,000  Level Memphis Center
12:05PM 34.3044 -92.8464 256° West 142 163 8,000  Level Memphis Center
12:06PM 34.2953 -92.8914 256° West 142 163 8,000  Level Memphis Center
12:07PM 34.2819 -92.9361 250° West 147 169 8,000  Level Memphis Center
12:08PM 34.2725 -92.9811 256° West 147 169 8,000  Level Memphis Center
12:09PM 34.2611 -93.0286 254° West 152 175 8,000  Level Memphis Center
12:10PM 34.2478 -93.0708 249° West 152 175 8,000  Level Memphis Center
12:12PM 34.2244 -93.1611 253° West 153 176 8,000  Level Fort Worth Center
12:13PM 34.2156 -93.2069 257° West 147 169 8,000  Level Fort Worth Center
12:14PM 34.2025 -93.2528 251° West 147 169 8,000  Level Fort Worth Center
12:15PM 34.1917 -93.3008 255° West 147 169 8,000  Level Fort Worth Center
12:16PM 34.1783 -93.3467 251° West 147 169 8,000  Level Fort Worth Center
12:17PM 34.1675 -93.3925 254° West 147 169 8,000  Level Fort Worth Center
12:18PM 34.1564 -93.4381 254° West 147 169 8,000  Level Fort Worth Center
12:19PM 34.1453 -93.4864 254° West 147 169 8,000  Level Fort Worth Center
12:20PM 34.1319 -93.5269 248° West 147 169 8,000  Level Fort Worth Center
12:21PM 34.1211 -93.5775 256° West 147 169 8,000  Level Fort Worth Center
12:22PM 34.1097 -93.6208 252° West 147 169 8,000  Level Fort Worth Center
12:23PM 34.0986 -93.6664 254° West 147 169 8,000  Level Fort Worth Center
12:24PM 34.0897 -93.7119 257° West 147 169 8,000  Level Fort Worth Center
12:25PM 34.0761 -93.7553 249° West 147 169 8,000  Level Fort Worth Center
12:26PM 34.0650 -93.7958 252° West 147 169 8,000  Level Fort Worth Center
12:27PM 34.0581 -93.8436 260° West 147 169 8,000  Level Fort Worth Center
12:28PM 34.0508 -93.8892 259° West 147 169 8,000  Level Fort Worth Center
12:29PM 34.0458 -93.9344 262° West 147 169 8,000  Level Fort Worth Center
12:30PM 34.0408 -93.9822 263° West 147 169 8,000  Level Fort Worth Center
12:31PM 34.0339 -94.0300 260° West 147 169 8,000  Level Fort Worth Center
12:32PM 34.0269 -94.0781 260° West 147 169 8,000  Level Fort Worth Center
12:33PM 34.0217 -94.1233 262° West 142 163 8,000  Level Fort Worth Center
12:34PM 34.0167 -94.1711 263° West 142 163 8,000  Level Fort Worth Center
12:35PM 34.0097 -94.2214 261° West 142 163 8,000  Level Fort Worth Center
12:36PM 34.0047 -94.2692 263° West 142 163 8,000 -60 Level Fort Worth Center
12:37PM 33.9994 -94.3169 262° West 142 163 7,900 -60 Descending Fort Worth Center
12:38PM 33.9944 -94.3672 263° West 142 163 7,900  Level Fort Worth Center
12:39PM 33.9875 -94.4178 261° West 142 163 7,900  Level Fort Worth Center
12:40PM 33.9822 -94.4653 262° West 142 163 7,900  Level Fort Worth Center
12:41PM 33.9792 -94.5131 266° West 142 163 7,900  Level Fort Worth Center
12:42PM 33.9719 -94.5608 260° West 147 169 7,900  Level Fort Worth Center
12:43PM 33.9647 -94.6086 260° West 142 163 7,900  Level Fort Worth Center
12:44PM 33.9614 -94.6539 265° West 147 169 7,900  Level Fort Worth Center
12:45PM 33.9542 -94.6992 259° West 147 169 7,900  Level Fort Worth Center
12:46PM 33.9489 -94.7494 263° West 147 169 7,900  Level Fort Worth Center
12:47PM 33.9436 -94.7972 262° West 147 169 7,900  Level Fort Worth Center
12:48PM 33.9364 -94.8450 260° West 142 163 7,900  Level Fort Worth Center
12:49PM 33.9331 -94.8900 265° West 142 163 7,900  Level Fort Worth Center
12:50PM 33.9236 -94.9406 257° West 142 163 7,900  Level Fort Worth Center
12:51PM 33.9183 -94.9856 262° West 147 169 7,900  Level Fort Worth Center
12:52PM 33.9131 -95.0358 263° West 147 169 7,900  Level Fort Worth Center
12:57PM 33.9140 -95.2890 263° West 155 178  Descending FlightAware
12:58PM 33.9190 -95.3100 286° West 155 178 120 Level FlightAware
12:59PM 33.9310 -95.3530 289° West 152 175 120 Level FlightAware
12:59PM 33.9330 -95.3640 282° West 153 176 120 Level FlightAware
12:59PM 33.9380 -95.3830 288° West 153 176 120 Level FlightAware
01:01PM 33.9640 -95.4760 289° West 151 174 120 Level FlightAware
01:02PM 33.9690 -95.4970 286° West 149 171 120 Level FlightAware
01:02PM 33.9750 -95.5170 290° West 151 174 120 Level FlightAware
01:03PM 33.9820 -95.5450 287° West 152 175 120 Level FlightAware
01:03PM 33.9880 -95.5650 290° West 151 174 120 Level FlightAware
01:04PM 33.9930 -95.5840 288° West 151 174 120 Level FlightAware
01:04PM 33.9990 -95.6030 291° West 151 174 120 Level FlightAware
01:06PM 34.0280 -95.7000 290° West 155 178 120 Level FlightAware
01:06PM 34.0310 -95.7070 297° West 155 178 120 Level FlightAware
01:07PM 34.0370 -95.7260 291° West 155 178 120 Level FlightAware
01:07PM 34.0460 -95.7580 289° West 154 177 120 Level FlightAware
01:08PM 34.0550 -95.7830 293° West 152 175 120 Level FlightAware
01:08PM 34.0660 -95.8140 293° West 153 176 120 Level FlightAware
01:09PM 34.0750 -95.8480 288° West 151 174 120 Level FlightAware
01:09PM 34.0730 -95.8710 264° West 143 165 120 Level FlightAware
01:10PM 34.0670 -95.8990 256° West 144 166 120 Level FlightAware
01:13PM 34.0170 -96.0570 249° West 148 170 120 Level FlightAware
01:14PM 34.0140 -96.0690 253° West 146 168 120 Level FlightAware
01:14PM 34.0080 -96.0880 249° West 144 166 120 Level FlightAware
01:15PM 34.0020 -96.1110 253° West 146 168 120 Level FlightAware
01:15PM 33.9970 -96.1300 252° West 145 167 120 Level FlightAware
01:15PM 33.9960 -96.1340 253° West 144 166 120 Level FlightAware
01:16PM 33.9880 -96.1650 253° West 143 165 120 Level FlightAware
01:16PM 33.9830 -96.1840 252° West 145 167 180 Level FlightAware
01:17PM 33.9770 -96.2060 252° West 142 163 180 Level FlightAware
01:17PM 33.9720 -96.2250 252° West 137 158 180 Level FlightAware
01:18PM 33.9660 -96.2480 253° West 137 158 180 Level FlightAware
01:18PM 33.9610 -96.2670 252° West 137 158 180 Level FlightAware
01:19PM 33.9550 -96.2890 252° West 137 158 180 Level FlightAware
01:19PM 33.9520 -96.2980 248° West 138 159 180 Level FlightAware
01:19PM 33.9470 -96.3160 251° West 138 159 180 Level FlightAware
01:20PM 33.9430 -96.3310 252° West 136 157 180 Level FlightAware
01:20PM 33.9380 -96.3490 251° West 136 157 180 Level FlightAware
01:20PM 33.9320 -96.3700 251° West 137 158 180 Level FlightAware
01:21PM 33.9270 -96.3890 252° West 136 157 180 Level FlightAware
01:21PM 33.9220 -96.4110 255° West 136 157 180 Level FlightAware
01:22PM 33.9160 -96.4300 249° West 138 159 180 Level FlightAware
01:22PM 33.9110 -96.4510 254° West 138 159 180 Level FlightAware
01:23PM 33.9050 -96.4730 252° West 140 161 180 Level FlightAware
01:23PM 33.9000 -96.4920 252° West 138 159 180 Level FlightAware
01:24PM 33.8940 -96.5140 252° West 138 159 180 Level FlightAware
01:24PM 33.8890 -96.5310 250° West 138 159 180 Level FlightAware
01:25PM 33.8840 -96.5530 255° West 135 155 180 Level FlightAware
01:25PM 33.8810 -96.5650 253° West 134 154 180 Level FlightAware
01:25PM 33.8760 -96.5820 250° West 135 155 180 Level FlightAware
01:26PM 33.8700 -96.6040 252° West 136 157 180 Level FlightAware
01:26PM 33.8670 -96.6160 253° West 138 159 180 Level FlightAware
01:27PM 33.8600 -96.6440 253° West 136 157 180 Level FlightAware
01:27PM 33.8560 -96.6560 248° West 138 159 240 Level FlightAware
01:27PM 33.8510 -96.6770 254° West 138 159 240 Level FlightAware
01:28PM 33.8460 -96.6960 252° West 139 160 240 Level FlightAware
01:28PM 33.8400 -96.7180 252° West 139 160 240 Level FlightAware
01:29PM 33.8350 -96.7350 251° West 139 160 240 Level FlightAware
01:29PM 33.8290 -96.7580 253° West 140 161 240 Level FlightAware
01:30PM 33.8260 -96.7700 253° West 141 162 240 Level FlightAware
01:30PM 33.8210 -96.7880 252° West 137 158 240 Level FlightAware
01:31PM 33.8140 -96.8130 251° West 137 158 240 Level FlightAware
01:31PM 33.8090 -96.8330 253° West 139 160 240 Level FlightAware
01:31PM 33.8040 -96.8500 251° West 140 161 240 Level FlightAware
01:32PM 33.8010 -96.8610 252° West 140 161 240 Level FlightAware
01:32PM 33.7940 -96.8850 251° West 141 162 240 Level FlightAware
01:33PM 33.7900 -96.9020 254° West 141 162 240 Level FlightAware
01:33PM 33.7840 -96.9240 252° West 140 161 240 Level FlightAware
01:33PM 33.7790 -96.9410 251° West 142 163 300 Level FlightAware
01:34PM 33.7760 -96.9510 250° West 141 162 300 Level FlightAware
01:34PM 33.7720 -96.9690 255° West 141 162 300 Level FlightAware
01:36PM 33.7520 -97.0400 251° West 140 161 300 Level FlightAware
01:36PM 33.7470 -97.0590 252° West 139 160 300 Level FlightAware
01:37PM 33.7410 -97.0780 249° West 139 160 300 Level FlightAware
01:37PM 33.7350 -97.1020 253° West 143 165 300 Level FlightAware
01:37PM 33.7310 -97.1180 253° West 142 163 300 Level FlightAware
01:38PM 33.7270 -97.1320 251° West 144 166 300 Level FlightAware
01:38PM 33.7220 -97.1510 252° West 142 163 360 Level FlightAware
01:39PM 33.7150 -97.1750 251° West 146 168 360 Level FlightAware
01:39PM 33.7090 -97.1990 253° West 143 165 360 Level FlightAware
01:40PM 33.7040 -97.2170 252° West 141 162 360 Level FlightAware
01:40PM 33.6970 -97.2410 251° West 143 165 360 Level FlightAware
01:40PM 33.6940 -97.2520 252° West 144 166 360 Level FlightAware
01:41PM 33.6890 -97.2680 249° West 144 166 360 Level FlightAware
01:41PM 33.6820 -97.2930 251° West 145 167 420 Level FlightAware
01:42PM 33.6770 -97.3120 252° West 146 168 420 Level FlightAware
01:42PM 33.6710 -97.3350 253° West 140 161 420 Level FlightAware
01:43PM 33.6640 -97.3580 250° West 146 168 420 Level FlightAware
01:43PM 33.6560 -97.3860 251° West 142 163 420 Level FlightAware
01:44PM 33.6500 -97.4090 253° West 144 166 480 Level FlightAware
01:44PM 33.6440 -97.4290 250° West 144 166 480 Level FlightAware
01:44PM 33.6420 -97.4390 256° West 142 163 480 Level FlightAware
01:45PM 33.6340 -97.4650 250° West 146 168 480 Level FlightAware
01:45PM 33.6300 -97.4840 256° West 144 166 540 Level FlightAware
01:46PM 33.6240 -97.5070 253° West 145 167 540 Level FlightAware
01:46PM 33.6190 -97.5270 253° West 152 175 540 Level FlightAware
01:47PM 33.6120 -97.5500 250° West 143 165 600 Level FlightAware
01:47PM 33.6060 -97.5720 252° West 139 160 600 Level FlightAware
01:48PM 33.6030 -97.5830 252° West 151 174 600 Level FlightAware
01:48PM 33.5970 -97.6030 250° West 155 178 660 Level FlightAware
01:48PM 33.5900 -97.6290 252° West 150 173 660 Level FlightAware
01:49PM 33.5850 -97.6460 251° West 150 173 720 Level FlightAware
01:49PM 33.5780 -97.6710 251° West 142 163 720 Level FlightAware
01:54PM 33.5080 -97.8700 247° West 147 169 780 Level FlightAware
01:54PM 33.4960 -97.8880 231° Southwest 132 152 1,380 Level FlightAware
01:55PM 33.4920 -97.8950 236° Southwest 126 145 1,560 Level FlightAware
01:55PM 33.4750 -97.9210 232° Southwest 142 163 1,620 Level FlightAware
01:56PM 33.4620 -97.9420 233° Southwest 146 168 1,860 Level FlightAware
01:56PM 33.4480 -97.9670 236° Southwest 155 178 2,220 Level FlightAware
01:57PM 33.4370 -97.9850 234° Southwest 153 176 2,640 Level FlightAware
01:57PM 33.4280 -98.0010 236° Southwest 153 176 3,060 Level FlightAware
01:58PM 33.4080 -98.0330 233° Southwest 146 168 3,660 Level FlightAware
01:58PM 33.4020 -98.0450 239° Southwest 146 168 5,700 Level FlightAware
01:59PM 33.3742 -98.0875 239° Southwest 148 170 7,900 3,840 Climbing Fort Worth Center
02:00PM 33.3553 -98.1222 237° Southwest 148 170 7,900  Level Fort Worth Center
02:01PM 33.3319 -98.1642 236° Southwest 148 170 7,900  Level Fort Worth Center
02:02PM 33.3067 -98.2064 234° Southwest 148 170 7,900  Level Fort Worth Center
02:03PM 33.2814 -98.2458 233° Southwest 148 170 8,000  Climbing Fort Worth Center
02:04PM 33.2603 -98.2831 236° Southwest 148 170 8,000 -60 Level Fort Worth Center
02:05PM 33.2328 -98.3272 233° Southwest 153 176 7,900  Descending Fort Worth Center
02:06PM 33.2097 -98.3619 232° Southwest 148 170 8,000 60 Climbing Fort Worth Center
02:07PM 33.1842 -98.4089 237° Southwest 153 176 8,100  Climbing Fort Worth Center
02:08PM 33.1589 -98.4483 233° Southwest 153 176 8,000  Descending Fort Worth Center
02:09PM 33.1292 -98.4950 233° Southwest 158 182 8,100  Climbing Fort Worth Center
02:10PM 33.0997 -98.5392 231° Southwest 164 189 8,000 -60 Descending Fort Worth Center
02:11PM 33.0783 -98.5861 241° Southwest 164 189 8,000 -60 Level Fort Worth Center
02:12PM 33.0528 -98.6278 234° Southwest 164 189 7,900 -300 Descending Fort Worth Center
02:13PM 33.0233 -98.6744 233° Southwest 169 194 7,500 -360 Descending Fort Worth Center
02:14PM 32.9956 -98.7186 233° Southwest 175 201 7,200 -300 Descending Fort Worth Center
02:15PM 32.9658 -98.7653 233° Southwest 175 201 6,900 -300 Descending Fort Worth Center
02:16PM 32.9403 -98.8119 237° Southwest 175 201 6,600 -420 Descending Fort Worth Center
02:17PM 32.9147 -98.8611 238° Southwest 175 201 6,100 -300 Descending Fort Worth Center
02:18PM 32.8850 -98.9075 233° Southwest 175 201 6,100 -60 Level Fort Worth Center
02:19PM 32.8572 -98.9517 233° Southwest 175 201 6,000 -60 Descending Fort Worth Center
02:20PM 32.8256 -98.9906 226° Southwest 175 201 6,000  Level Fort Worth Center
02:21PM 32.8061 -99.0372 244° Southwest 175 201 6,000  Level Fort Worth Center
02:22PM 32.7764 -99.0811 231° Southwest 175 201 6,000  Level Fort Worth Center
02:23PM 32.7506 -99.1228 234° Southwest 175 201 6,000  Level Fort Worth Center
02:24PM 32.7231 -99.1667 233° Southwest 175 201 6,000  Level Fort Worth Center
02:25PM 32.6994 -99.2081 236° Southwest 175 201 6,000  Level Fort Worth Center
02:26PM 32.6736 -99.2544 237° Southwest 175 201 6,000  Level Fort Worth Center
02:27PM 32.6439 -99.2958 230° Southwest 175 201 6,000 -60 Level Fort Worth Center
02:28PM 32.6203 -99.3397 237° Southwest 175 201 5,900 -300 Descending Fort Worth Center
02:29PM 32.5922 -99.3886 236° Southwest 175 201 5,500 -420 Descending Fort Worth Center
02:30PM 32.5644 -99.4347 234° Southwest 180 207 5,100 -420 Descending Fort Worth Center
02:31PM 32.5367 -99.4783 233° Southwest 175 201 4,700 -420 Descending Fort Worth Center
02:32PM 32.5086 -99.5247 234° Southwest 175 201 4,300 -420 Descending Fort Worth Center
02:33PM 32.4828 -99.5708 236° Southwest 175 201 3,900 -420 Descending Fort Worth Center
02:35PM 32.4506 -99.6116 227° Southwest  Level FlightAware Approximate
02:42PM 32.4000 -99.6667 220° Southwest  Level FlightAware Approximate
02:43PM 32.4113 -99.6819 220° Southwest  Level Estimated
02:44PM 32.4113 -99.6819 220° Southwest  Level Estimated
02:45PM 32.4113 -99.6819 220° Southwest  Level Estimated